Time;durP1;ratioP1;P1;durP2;ratioP2;P2;SDS_P1;SDS_P2;PMS_P1;PMS_P2;Temp;Humidity;BMP_temperature;BMP_pressure;BME280_temperature;BME280_humidity;BME280_pressure;Samples;Min_cycle;Max_cycle;Signal;HPM_P1;HPM_P2
2021/04/22 00:00:27;;;;;;;10.00;7.83;;;;;;;;;;5032664;28;20189;-72
2021/04/22 00:03:31;;;;;;;10.37;7.97;;;;;;;;;;5033383;28;20185;-71
2021/04/22 00:06:35;;;;;;;11.30;8.30;;;;;;;;;;5032585;28;20189;-72
2021/04/22 00:09:40;;;;;;;12.13;8.00;;;;;;;;;;5032226;28;20180;-72
2021/04/22 00:12:44;;;;;;;10.77;7.67;;;;;;;;;;5033186;28;20212;-72
2021/04/22 00:15:50;;;;;;;9.67;7.40;;;;;;;;;;5033175;28;20228;-72
2021/04/22 00:18:54;;;;;;;11.30;7.10;;;;;;;;;;5033152;28;20180;-72
2021/04/22 00:21:58;;;;;;;13.93;8.53;;;;;;;;;;5032448;28;20216;-72
2021/04/22 00:25:04;;;;;;;13.03;8.27;;;;;;;;;;5033272;28;20177;-71
2021/04/22 00:28:10;;;;;;;10.63;7.73;;;;;;;;;;5033113;28;20173;-72
2021/04/22 00:31:15;;;;;;;8.57;6.63;;;;;;;;;;5032073;28;20216;-72
2021/04/22 00:34:19;;;;;;;9.50;6.97;;;;;;;;;;5032925;28;20181;-72
2021/04/22 00:37:23;;;;;;;12.53;7.37;;;;;;;;;;5021088;28;20177;-72
2021/04/22 00:40:29;;;;;;;11.13;7.70;;;;;;;;;;5033052;28;20655;-72
2021/04/22 00:43:34;;;;;;;9.90;7.63;;;;;;;;;;5032864;28;20181;-72
2021/04/22 00:46:38;;;;;;;12.93;7.40;;;;;;;;;;5031975;28;20189;-72
2021/04/22 00:49:43;;;;;;;12.37;8.07;;;;;;;;;;5032748;28;20196;-72
2021/04/22 00:52:47;;;;;;;9.23;7.43;;;;;;;;;;5032716;28;20197;-72
2021/04/22 00:55:55;;;;;;;11.03;8.00;;;;;;;;;;5032412;28;20557;-72
2021/04/22 00:58:59;;;;;;;11.03;8.13;;;;;;;;;;5032628;28;20541;-72
2021/04/22 01:02:09;;;;;;;14.07;8.77;;;;;;;;;;5031919;28;20220;-72
2021/04/22 01:05:19;;;;;;;11.37;8.13;;;;;;;;;;5032933;28;20177;-72
2021/04/22 01:08:24;;;;;;;11.27;8.00;;;;;;;;;;5031833;28;20185;-72
2021/04/22 01:11:30;;;;;;;10.43;7.83;;;;;;;;;;5031959;28;20220;-71
2021/04/22 01:14:34;;;;;;;11.33;8.30;;;;;;;;;;5032755;28;20207;-72
2021/04/22 01:17:38;;;;;;;13.30;8.17;;;;;;;;;;5032484;28;20209;-72
2021/04/22 01:20:46;;;;;;;10.67;7.73;;;;;;;;;;5032433;28;20221;-72
2021/04/22 01:23:51;;;;;;;10.67;7.23;;;;;;;;;;5036401;28;20181;-72
2021/04/22 01:26:55;;;;;;;9.07;7.03;;;;;;;;;;5036147;28;20180;-72
2021/04/22 01:29:59;;;;;;;11.70;8.27;;;;;;;;;;5036358;28;20200;-71
2021/04/22 01:33:05;;;;;;;10.10;8.17;;;;;;;;;;5052763;28;20200;-71
2021/04/22 01:36:09;;;;;;;10.20;7.73;;;;;;;;;;5036807;28;20209;-71
2021/04/22 01:39:14;;;;;;;12.43;8.40;;;;;;;;;;5054942;28;20631;-72
2021/04/22 01:42:18;;;;;;;11.03;7.93;;;;;;;;;;5041805;28;20212;-72
2021/04/22 01:45:23;;;;;;;10.93;8.60;;;;;;;;;;5035632;28;20200;-72
2021/04/22 01:48:28;;;;;;;11.67;7.70;;;;;;;;;;5035599;28;20197;-72
2021/04/22 01:51:32;;;;;;;11.73;8.70;;;;;;;;;;5035696;28;20726;-71
2021/04/22 01:54:36;;;;;;;10.93;7.90;;;;;;;;;;5035820;28;20624;-72
2021/04/22 01:57:41;;;;;;;13.13;7.50;;;;;;;;;;5035642;28;20181;-72
2021/04/22 02:00:50;;;;;;;11.43;9.00;;;;;;;;;;5035331;28;20220;-71
2021/04/22 02:03:55;;;;;;;12.47;8.33;;;;;;;;;;5035438;28;20200;-72
2021/04/22 02:06:59;;;;;;;12.37;9.03;;;;;;;;;;5035567;28;20197;-72
2021/04/22 02:10:05;;;;;;;12.50;8.87;;;;;;;;;;5034418;28;20520;-72
2021/04/22 02:13:13;;;;;;;10.70;7.93;;;;;;;;;;5035132;28;20197;-72
2021/04/22 02:16:17;;;;;;;10.30;8.37;;;;;;;;;;5035171;28;20216;-72
2021/04/22 02:19:22;;;;;;;11.10;8.13;;;;;;;;;;5035181;28;20181;-72
2021/04/22 02:22:26;;;;;;;10.90;8.57;;;;;;;;;;5029569;28;20220;-71
2021/04/22 02:25:30;;;;;;;12.37;8.17;;;;;;;;;;5030294;28;20181;-71
2021/04/22 02:28:35;;;;;;;11.63;8.77;;;;;;;;;;5031151;28;20189;-71
2021/04/22 02:31:39;;;;;;;12.80;8.77;;;;;;;;;;5031033;28;20609;-71
2021/04/22 02:34:43;;;;;;;13.07;9.33;;;;;;;;;;5030644;28;20180;-71
2021/04/22 02:37:49;;;;;;;13.60;8.83;;;;;;;;;;5032959;28;20196;-71
2021/04/22 02:40:53;;;;;;;16.27;9.33;;;;;;;;;;5020638;28;20223;-71
2021/04/22 02:43:57;;;;;;;13.07;9.40;;;;;;;;;;5041239;28;20207;-71
2021/04/22 02:47:02;;;;;;;12.67;9.10;;;;;;;;;;5011147;28;20177;-71
2021/04/22 02:50:09;;;;;;;14.53;9.17;;;;;;;;;;5011228;28;20177;-71
2021/04/22 02:53:14;;;;;;;14.40;9.73;;;;;;;;;;5010376;28;20509;-71
2021/04/22 02:56:18;;;;;;;14.50;9.43;;;;;;;;;;5011001;28;20809;-71
2021/04/22 02:59:22;;;;;;;12.40;10.03;;;;;;;;;;5010966;28;20190;-71
2021/04/22 03:02:26;;;;;;;14.33;10.43;;;;;;;;;;5010726;28;20691;-71
2021/04/22 03:05:31;;;;;;;14.07;9.10;;;;;;;;;;5012920;28;20177;-70
2021/04/22 03:08:35;;;;;;;16.03;10.30;;;;;;;;;;5014960;28;20182;-71
2021/04/22 03:11:39;;;;;;;14.93;10.33;;;;;;;;;;5014577;28;20722;-72
2021/04/22 03:14:43;;;;;;;15.10;10.77;;;;;;;;;;5014773;28;20186;-71
2021/04/22 03:17:47;;;;;;;13.70;10.97;;;;;;;;;;5034501;22;20227;-73
2021/04/22 03:20:51;;;;;;;16.60;11.03;;;;;;;;;;5053056;28;20220;-74
2021/04/22 03:23:55;;;;;;;18.93;11.53;;;;;;;;;;5044460;28;20212;-74
2021/04/22 03:27:00;;;;;;;15.40;10.63;;;;;;;;;;5041404;28;20191;-74
2021/04/22 03:30:06;;;;;;;17.27;11.10;;;;;;;;;;5064602;28;20188;-74
2021/04/22 03:33:10;;;;;;;15.10;10.10;;;;;;;;;;5053029;28;20184;-74
2021/04/22 03:36:14;;;;;;;16.47;10.70;;;;;;;;;;5050035;28;20567;-74
2021/04/22 03:39:18;;;;;;;43.70;13.07;;;;;;;;;;5032861;28;20520;-74
2021/04/22 03:42:23;;;;;;;16.23;10.23;;;;;;;;;;5033535;28;20208;-74
2021/04/22 03:45:27;;;;;;;14.97;9.77;;;;;;;;;;5032362;28;20628;-74
2021/04/22 03:48:31;;;;;;;17.87;10.80;;;;;;;;;;5032507;28;20184;-73
2021/04/22 03:51:36;;;;;;;15.90;10.83;;;;;;;;;;5009481;28;20221;-74
2021/04/22 03:54:40;;;;;;;16.03;9.90;;;;;;;;;;5032828;28;20201;-75
2021/04/22 03:57:44;;;;;;;14.93;10.60;;;;;;;;;;5032442;28;20212;-75
2021/04/22 04:00:49;;;;;;;14.40;10.60;;;;;;;;;;5031944;28;20220;-75
2021/04/22 04:03:52;;;;;;;14.87;9.90;;;;;;;;;;5031958;28;20189;-74
2021/04/22 04:06:57;;;;;;;15.47;10.33;;;;;;;;;;5032482;28;20299;-73
2021/04/22 04:10:04;;;;;;;13.73;9.90;;;;;;;;;;5033139;28;20536;-73
2021/04/22 04:13:08;;;;;;;14.30;10.27;;;;;;;;;;5033197;28;20631;-74
2021/04/22 04:16:12;;;;;;;15.10;10.47;;;;;;;;;;5033233;28;20213;-74
2021/04/22 04:19:16;;;;;;;18.60;10.10;;;;;;;;;;5032291;28;20200;-74
2021/04/22 04:22:20;;;;;;;13.43;10.73;;;;;;;;;;5035714;28;20223;-73
2021/04/22 04:25:24;;;;;;;15.33;9.77;;;;;;;;;;5038755;28;20208;-73
2021/04/22 04:28:29;;;;;;;14.17;10.67;;;;;;;;;;5032077;28;20200;-73
2021/04/22 04:31:33;;;;;;;15.37;10.40;;;;;;;;;;5032343;28;20220;-74
2021/04/22 04:34:37;;;;;;;17.20;10.20;;;;;;;;;;5032934;28;20555;-74
2021/04/22 04:37:42;;;;;;;14.37;9.93;;;;;;;;;;5032817;28;20225;-74
2021/04/22 04:40:46;;;;;;;15.93;10.47;;;;;;;;;;5032404;28;20212;-74
2021/04/22 04:43:50;;;;;;;17.47;10.23;;;;;;;;;;5032870;28;20201;-74
2021/04/22 04:46:55;;;;;;;16.00;10.30;;;;;;;;;;5033094;28;20173;-73
2021/04/22 04:49:58;;;;;;;14.87;10.40;;;;;;;;;;5033143;28;20630;-74
2021/04/22 04:53:03;;;;;;;17.27;10.30;;;;;;;;;;5033041;28;20181;-74
2021/04/22 04:56:07;;;;;;;14.67;10.77;;;;;;;;;;5033844;28;20208;-74
2021/04/22 04:59:11;;;;;;;17.40;12.40;;;;;;;;;;5036872;28;20189;-74
2021/04/22 05:02:15;;;;;;;16.47;11.30;;;;;;;;;;5036552;28;20216;-73
2021/04/22 05:05:19;;;;;;;16.83;11.43;;;;;;;;;;5037050;28;20512;-74
2021/04/22 05:08:24;;;;;;;17.90;11.20;;;;;;;;;;5036725;28;20513;-74
2021/04/22 05:11:28;;;;;;;18.47;11.80;;;;;;;;;;5036575;28;20216;-74
2021/04/22 05:14:33;;;;;;;16.33;11.90;;;;;;;;;;5036617;28;20181;-74
2021/04/22 05:17:38;;;;;;;21.90;13.80;;;;;;;;;;5036313;28;20208;-74
2021/04/22 05:20:42;;;;;;;19.73;14.37;;;;;;;;;;5036391;28;20220;-74
2021/04/22 05:23:46;;;;;;;33.87;13.07;;;;;;;;;;5035622;28;20188;-74
2021/04/22 05:26:50;;;;;;;23.40;13.47;;;;;;;;;;5035519;28;20177;-74
2021/04/22 05:29:55;;;;;;;19.27;13.90;;;;;;;;;;5024457;28;20185;-74
2021/04/22 05:32:59;;;;;;;22.33;14.67;;;;;;;;;;5036450;28;20524;-74
2021/04/22 05:36:04;;;;;;;19.33;13.00;;;;;;;;;;5036134;28;20180;-74
2021/04/22 05:39:08;;;;;;;22.77;12.83;;;;;;;;;;5036173;28;20185;-74
2021/04/22 05:42:12;;;;;;;22.97;13.53;;;;;;;;;;5035391;28;20212;-74
2021/04/22 05:45:17;;;;;;;20.63;14.50;;;;;;;;;;5036013;28;20177;-74
2021/04/22 05:48:21;;;;;;;25.90;13.27;;;;;;;;;;5035427;28;20189;-74
2021/04/22 05:51:25;;;;;;;20.13;14.10;;;;;;;;;;5035069;28;20220;-74
2021/04/22 05:54:29;;;;;;;28.30;14.00;;;;;;;;;;5035587;28;20180;-74
2021/04/22 05:57:34;;;;;;;29.43;13.93;;;;;;;;;;5023452;28;20213;-74
2021/04/22 06:00:38;;;;;;;29.10;13.80;;;;;;;;;;5035275;28;20200;-74
2021/04/22 06:03:42;;;;;;;19.33;13.50;;;;;;;;;;5035604;28;20185;-73
2021/04/22 06:06:47;;;;;;;20.70;13.27;;;;;;;;;;5034942;28;20173;-74
2021/04/22 06:09:51;;;;;;;16.67;12.33;;;;;;;;;;5023341;28;20180;-74
2021/04/22 06:12:55;;;;;;;62.57;17.60;;;;;;;;;;5035284;28;20176;-73
2021/04/22 06:15:59;;;;;;;18.07;13.87;;;;;;;;;;5035499;28;20645;-74
2021/04/22 06:19:05;;;;;;;16.43;12.73;;;;;;;;;;5035068;28;20197;-74
2021/04/22 06:22:09;;;;;;;18.67;12.67;;;;;;;;;;5022857;28;20590;-74
2021/04/22 06:25:13;;;;;;;28.43;13.43;;;;;;;;;;5035273;28;20185;-74
2021/04/22 06:28:17;;;;;;;16.20;12.87;;;;;;;;;;5034912;28;20552;-74
2021/04/22 06:31:22;;;;;;;17.57;13.03;;;;;;;;;;5034294;28;20212;-74
2021/04/22 06:34:26;;;;;;;17.60;12.53;;;;;;;;;;5034901;28;20173;-74
2021/04/22 06:37:30;;;;;;;18.53;12.10;;;;;;;;;;5035006;28;20204;-73
2021/04/22 06:40:34;;;;;;;19.70;13.57;;;;;;;;;;5034929;28;20185;-74
2021/04/22 06:43:38;;;;;;;30.67;14.90;;;;;;;;;;5034719;28;20208;-75
2021/04/22 06:46:43;;;;;;;18.73;12.83;;;;;;;;;;5034613;28;20195;-74
2021/04/22 06:49:48;;;;;;;16.57;12.73;;;;;;;;;;5033505;28;20204;-74
2021/04/22 06:52:53;;;;;;;18.80;14.03;;;;;;;;;;5034280;28;20655;-74
2021/04/22 06:55:58;;;;;;;19.33;13.53;;;;;;;;;;5034692;28;20531;-73
2021/04/22 06:59:04;;;;;;;16.50;13.20;;;;;;;;;;5034898;28;20188;-74
2021/04/22 07:02:09;;;;;;;24.03;13.53;;;;;;;;;;5034242;28;20215;-74
2021/04/22 07:05:14;;;;;;;18.60;13.43;;;;;;;;;;5033431;28;20200;-75
2021/04/22 07:08:18;;;;;;;25.67;13.10;;;;;;;;;;5034172;28;20702;-74
2021/04/22 07:11:23;;;;;;;18.37;12.80;;;;;;;;;;5034399;28;20219;-74
2021/04/22 07:14:27;;;;;;;16.03;12.40;;;;;;;;;;5034098;28;20188;-75
2021/04/22 07:17:31;;;;;;;20.23;12.40;;;;;;;;;;5033779;28;20226;-75
2021/04/22 07:20:36;;;;;;;17.20;12.33;;;;;;;;;;5033210;28;20188;-74
2021/04/22 07:23:40;;;;;;;15.03;12.10;;;;;;;;;;5033952;28;20188;-74
2021/04/22 07:26:44;;;;;;;18.03;12.67;;;;;;;;;;5034152;28;20180;-74
2021/04/22 07:29:49;;;;;;;18.70;13.00;;;;;;;;;;5034079;28;20180;-74
2021/04/22 07:32:53;;;;;;;18.53;12.00;;;;;;;;;;5033182;28;20184;-75
2021/04/22 07:35:58;;;;;;;17.83;12.67;;;;;;;;;;5033131;28;20196;-74
2021/04/22 07:39:02;;;;;;;18.73;12.03;;;;;;;;;;5033033;28;20216;-74
2021/04/22 07:42:07;;;;;;;15.50;11.77;;;;;;;;;;5033703;28;20224;-75
2021/04/22 07:45:13;;;;;;;20.17;13.60;;;;;;;;;;5033571;28;20187;-74
2021/04/22 07:48:17;;;;;;;17.50;13.50;;;;;;;;;;5032916;28;20536;-75
2021/04/22 07:51:21;;;;;;;18.13;12.63;;;;;;;;;;5033701;28;20223;-74
2021/04/22 07:54:25;;;;;;;17.70;13.73;;;;;;;;;;5032649;28;20180;-74
2021/04/22 07:57:29;;;;;;;18.87;12.87;;;;;;;;;;5033255;28;20223;-74
2021/04/22 08:00:35;;;;;;;18.33;13.63;;;;;;;;;;5021056;28;20559;-74
2021/04/22 08:03:39;;;;;;;18.13;13.07;;;;;;;;;;5033592;28;20200;-75
2021/04/22 08:06:43;;;;;;;17.33;13.67;;;;;;;;;;5033237;28;20188;-74
2021/04/22 08:09:47;;;;;;;17.83;12.73;;;;;;;;;;5033219;28;20183;-74
2021/04/22 08:12:51;;;;;;;27.27;15.50;;;;;;;;;;5032288;28;20200;-74
2021/04/22 08:15:55;;;;;;;23.50;14.80;;;;;;;;;;5032534;28;20202;-74
2021/04/22 08:19:00;;;;;;;17.80;14.40;;;;;;;;;;5020864;28;20231;-75
2021/04/22 08:22:04;;;;;;;20.07;14.67;;;;;;;;;;5032724;28;20215;-74
2021/04/22 08:25:16;;;;;;;21.10;15.23;;;;;;;;;;5033334;28;20184;-74
2021/04/22 08:28:23;;;;;;;21.77;14.37;;;;;;;;;;5032997;28;20184;-74
2021/04/22 08:31:29;;;;;;;19.50;14.20;;;;;;;;;;5023573;28;20584;-74
2021/04/22 08:34:33;;;;;;;46.57;16.43;;;;;;;;;;5037053;28;20184;-74
2021/04/22 08:37:37;;;;;;;21.47;15.40;;;;;;;;;;5036132;28;20219;-74
2021/04/22 08:40:42;;;;;;;24.53;17.70;;;;;;;;;;5036378;28;20227;-74
2021/04/22 08:43:47;;;;;;;25.90;20.93;;;;;;;;;;5035998;28;20208;-74
2021/04/22 08:46:53;;;;;;;26.67;21.90;;;;;;;;;;5036326;28;20682;-74
2021/04/22 08:49:57;;;;;;;27.70;21.93;;;;;;;;;;5036255;28;20543;-75
2021/04/22 08:53:08;;;;;;;27.87;22.40;;;;;;;;;;5037033;28;20196;-74
2021/04/22 08:56:13;;;;;;;25.33;19.33;;;;;;;;;;5036632;28;20196;-75
2021/04/22 08:59:18;;;;;;;21.97;17.53;;;;;;;;;;5036822;28;20698;-74
2021/04/22 09:02:22;;;;;;;24.37;17.67;;;;;;;;;;5036812;28;20250;-75
2021/04/22 09:05:27;;;;;;;18.90;15.13;;;;;;;;;;5036790;28;20184;-74
2021/04/22 09:08:35;;;;;;;22.27;17.87;;;;;;;;;;5035926;28;20199;-74
2021/04/22 09:11:45;;;;;;;22.37;16.10;;;;;;;;;;5036484;28;20722;-75
2021/04/22 09:15:02;;;;;;;18.37;14.60;;;;;;;;;;5035851;28;20192;-74
2021/04/22 09:18:14;;;;;;;17.93;14.33;;;;;;;;;;5035436;28;20240;-74
2021/04/22 09:21:22;;;;;;;18.77;14.40;;;;;;;;;;5064637;22;20239;-85
2021/04/22 09:24:26;;;;;;;18.43;14.03;;;;;;;;;;5056988;28;20188;-85
2021/04/22 09:27:31;;;;;;;17.27;14.17;;;;;;;;;;5045543;28;20457;-85
2021/04/22 09:30:45;;;;;;;18.13;14.10;;;;;;;;;;5045486;28;20183;-86
2021/04/22 09:34:06;;;;;;;21.33;14.80;;;;;;;;;;5036556;28;20208;-86
2021/04/22 09:37:10;;;;;;;18.63;13.30;;;;;;;;;;5029920;28;20200;-86
2021/04/22 09:40:14;;;;;;;19.07;12.83;;;;;;;;;;5037963;28;20183;-86
2021/04/22 09:43:19;;;;;;;18.90;12.90;;;;;;;;;;5013304;28;20184;-85
2021/04/22 09:46:23;;;;;;;22.67;13.77;;;;;;;;;;5028680;28;20188;-85
2021/04/22 09:49:28;;;;;;;19.30;14.00;;;;;;;;;;5036335;28;20244;-85
2021/04/22 09:52:35;;;;;;;66.00;16.63;;;;;;;;;;5025276;28;20223;-85
2021/04/22 09:55:39;;;;;;;14.83;11.70;;;;;;;;;;5024748;28;20192;-85
2021/04/22 09:58:43;;;;;;;17.87;12.67;;;;;;;;;;5024495;28;20211;-85
2021/04/22 10:01:58;;;;;;;26.73;13.43;;;;;;;;;;5035841;28;20219;-85
2021/04/22 10:05:02;;;;;;;15.07;11.63;;;;;;;;;;5024393;28;20188;-85
2021/04/22 10:08:08;;;;;;;14.97;12.03;;;;;;;;;;5035638;28;20188;-85
2021/04/22 10:11:12;;;;;;;16.27;11.23;;;;;;;;;;5024336;28;20239;-85
2021/04/22 10:14:28;;;;;;;13.97;10.57;;;;;;;;;;5012760;28;20207;-85
2021/04/22 10:17:32;;;;;;;16.77;11.47;;;;;;;;;;5023969;28;20203;-85
2021/04/22 10:20:38;;;;;;;16.83;11.37;;;;;;;;;;5013115;28;20192;-85
2021/04/22 10:23:42;;;;;;;15.10;10.40;;;;;;;;;;5024393;28;20177;-85
2021/04/22 10:26:57;;;;;;;15.97;10.70;;;;;;;;;;5024223;28;20184;-85
2021/04/22 10:30:05;;;;;;;14.87;8.67;;;;;;;;;;5024640;28;20528;-85
2021/04/22 10:33:10;;;;;;;12.43;8.60;;;;;;;;;;5023921;28;20212;-85
2021/04/22 10:36:19;;;;;;;21.23;9.90;;;;;;;;;;5012915;28;20184;-85
2021/04/22 10:39:24;;;;;;;12.90;9.53;;;;;;;;;;5023707;28;20234;-85
2021/04/22 10:42:29;;;;;;;12.37;11.07;;;;;;;;;;5035290;28;20220;-86
2021/04/22 10:45:36;;;;;;;19.03;11.67;;;;;;;;;;5023520;28;20575;-86
2021/04/22 10:48:42;;;;;;;15.03;11.37;;;;;;;;;;5023798;28;20184;-86
2021/04/22 10:51:47;;;;;;;17.87;11.93;;;;;;;;;;5034800;28;20227;-85
2021/04/22 10:54:52;;;;;;;15.80;11.73;;;;;;;;;;5034572;28;20188;-85
2021/04/22 10:58:00;;;;;;;17.67;11.63;;;;;;;;;;5022982;28;20199;-85
2021/04/22 11:01:10;;;;;;;24.33;12.90;;;;;;;;;;5011768;28;20204;-85
2021/04/22 11:04:14;;;;;;;20.97;13.87;;;;;;;;;;5034848;28;20272;-85
2021/04/22 11:07:25;;;;;;;16.07;12.30;;;;;;;;;;5023017;28;20560;-85
2021/04/22 11:10:39;;;;;;;46.93;13.93;;;;;;;;;;5034723;28;20180;-85
2021/04/22 11:13:44;;;;;;;19.80;13.60;;;;;;;;;;5023037;28;20566;-85
2021/04/22 11:16:53;;;;;;;16.03;12.67;;;;;;;;;;5023275;28;20214;-85
2021/04/22 11:19:57;;;;;;;17.17;12.83;;;;;;;;;;5034592;28;20215;-85
2021/04/22 11:23:17;;;;;;;15.10;12.00;;;;;;;;;;5022554;28;20227;-85
2021/04/22 11:26:24;;;;;;;20.23;12.03;;;;;;;;;;5022897;28;20539;-85
2021/04/22 11:29:43;;;;;;;19.77;12.20;;;;;;;;;;5034252;28;20176;-85
2021/04/22 11:32:53;;;;;;;15.30;11.57;;;;;;;;;;5022844;28;20244;-85
2021/04/22 11:35:57;;;;;;;15.00;11.83;;;;;;;;;;5022815;28;20187;-85
2021/04/22 11:39:06;;;;;;;17.20;11.80;;;;;;;;;;5033902;28;20211;-85
2021/04/22 11:42:11;;;;;;;15.97;10.97;;;;;;;;;;5022404;28;20224;-85
2021/04/22 11:45:29;;;;;;;16.70;11.50;;;;;;;;;;5034573;28;20191;-85
2021/04/22 11:48:42;;;;;;;16.53;11.13;;;;;;;;;;5022450;28;20188;-85
2021/04/22 11:51:46;;;;;;;14.27;10.60;;;;;;;;;;5033416;28;20220;-85
2021/04/22 11:54:50;;;;;;;13.80;9.33;;;;;;;;;;5022406;28;20251;-85
2021/04/22 11:57:59;;;;;;;22.07;9.27;;;;;;;;;;5033482;28;20177;-85
2021/04/22 12:01:08;;;;;;;12.27;8.47;;;;;;;;;;5022473;28;20177;-85
2021/04/22 12:04:12;;;;;;;14.20;8.07;;;;;;;;;;5024389;28;20177;-86
2021/04/22 12:07:22;;;;;;;11.43;7.97;;;;;;;;;;5034308;28;20196;-85
2021/04/22 12:10:29;;;;;;;9.47;6.47;;;;;;;;;;5023391;28;20188;-86
2021/04/22 12:13:34;;;;;;;14.03;7.33;;;;;;;;;;5022199;28;20623;-85
2021/04/22 12:16:38;;;;;;;9.97;5.67;;;;;;;;;;5022412;28;20525;-85
2021/04/22 12:19:43;;;;;;;9.13;5.43;;;;;;;;;;5021796;28;20675;-85
2021/04/22 12:22:48;;;;;;;9.27;5.27;;;;;;;;;;5033322;28;20229;-85
2021/04/22 12:25:53;;;;;;;9.30;4.50;;;;;;;;;;5021685;28;20181;-85
2021/04/22 12:28:58;;;;;;;21.57;4.43;;;;;;;;;;5022848;28;20180;-85
2021/04/22 12:32:02;;;;;;;7.07;3.27;;;;;;;;;;5023163;28;20220;-86
2021/04/22 12:35:16;;;;;;;5.23;3.10;;;;;;;;;;5023754;28;20181;-85
2021/04/22 12:38:26;;;;;;;6.47;3.37;;;;;;;;;;5023600;28;20185;-86
2021/04/22 12:41:31;;;;;;;7.13;3.07;;;;;;;;;;5011751;28;20239;-85
2021/04/22 12:44:37;;;;;;;14.87;3.80;;;;;;;;;;5023685;28;20176;-86
2021/04/22 12:47:49;;;;;;;9.10;2.83;;;;;;;;;;5012311;28;20180;-85
2021/04/22 12:50:54;;;;;;;9.37;2.70;;;;;;;;;;5020316;28;20193;-85
2021/04/22 12:53:58;;;;;;;10.43;3.03;;;;;;;;;;5011662;28;20544;-85
2021/04/22 12:57:11;;;;;;;6.87;3.23;;;;;;;;;;5012384;28;20659;-85
2021/04/22 13:00:15;;;;;;;5.47;2.60;;;;;;;;;;5012662;28;20225;-85
2021/04/22 13:03:28;;;;;;;4.57;2.47;;;;;;;;;;5023097;28;20177;-85
2021/04/22 13:06:35;;;;;;;4.50;2.90;;;;;;;;;;5023330;28;20508;-85
2021/04/22 16:58:44;;;;;;;7.60;2.33;;;;;;;;;;4868036;29;20230;-85
2021/04/22 17:01:50;;;;;;;10.50;2.90;;;;;;;;;;4855110;29;20207;-85
2021/04/22 17:04:55;;;;;;;12.10;2.93;;;;;;;;;;4863025;29;20193;-84
2021/04/22 17:08:00;;;;;;;6.87;2.30;;;;;;;;;;4862810;29;20218;-83
2021/04/22 17:11:07;;;;;;;5.10;2.40;;;;;;;;;;4862842;29;20634;-84
2021/04/22 17:14:11;;;;;;;4.70;2.57;;;;;;;;;;4862717;29;20187;-86
2021/04/22 17:17:15;;;;;;;5.63;2.03;;;;;;;;;;4863000;29;20187;-84
2021/04/22 17:20:23;;;;;;;7.13;3.00;;;;;;;;;;4863889;29;20215;-84
2021/04/22 17:23:28;;;;;;;6.17;2.20;;;;;;;;;;4853766;29;20199;-84
2021/04/22 17:26:33;;;;;;;4.17;2.23;;;;;;;;;;4865458;29;20202;-83
2021/04/22 17:29:38;;;;;;;5.83;2.10;;;;;;;;;;4854423;29;20190;-83
2021/04/22 17:32:49;;;;;;;4.90;2.00;;;;;;;;;;4855514;29;20187;-83
2021/04/22 17:35:54;;;;;;;16.67;3.67;;;;;;;;;;4865269;29;20183;-82
2021/04/22 17:39:08;;;;;;;7.57;2.20;;;;;;;;;;4865077;29;20231;-85
2021/04/22 17:42:12;;;;;;;8.70;3.10;;;;;;;;;;4854331;29;20198;-84
2021/04/22 17:45:17;;;;;;;5.57;2.40;;;;;;;;;;4906019;29;20244;-85
2021/04/22 17:48:22;;;;;;;12.43;2.50;;;;;;;;;;4899626;29;20217;-85
2021/04/22 17:51:26;;;;;;;5.87;1.97;;;;;;;;;;4891232;29;20202;-86
2021/04/22 17:54:30;;;;;;;3.47;2.13;;;;;;;;;;4879952;29;20194;-86
2021/04/22 17:57:36;;;;;;;8.87;2.67;;;;;;;;;;4882255;29;20228;-86
2021/04/22 18:00:43;;;;;;;6.33;2.33;;;;;;;;;;4882163;29;20209;-86
2021/04/22 18:03:47;;;;;;;5.00;2.40;;;;;;;;;;4897180;29;20184;-87
2021/04/22 18:06:52;;;;;;;5.53;2.00;;;;;;;;;;4922551;29;20181;-86
2021/04/22 18:09:56;;;;;;;5.50;2.43;;;;;;;;;;4899148;29;20193;-87
2021/04/22 18:13:04;;;;;;;4.73;2.17;;;;;;;;;;4903348;29;20201;-88
2021/04/22 18:16:08;;;;;;;5.87;2.40;;;;;;;;;;4868915;29;20654;-86
2021/04/22 18:19:13;;;;;;;5.07;2.27;;;;;;;;;;4870358;29;20233;-86
2021/04/22 18:22:17;;;;;;;5.67;2.50;;;;;;;;;;4878922;29;20664;-88
2021/04/22 18:25:24;;;;;;;4.87;2.40;;;;;;;;;;4887679;29;21177;-87
2021/04/22 18:28:30;;;;;;;5.77;2.30;;;;;;;;;;4893342;29;20225;-86
2021/04/22 18:31:35;;;;;;;7.67;2.40;;;;;;;;;;4897418;29;20205;-86
2021/04/22 18:34:41;;;;;;;5.67;2.80;;;;;;;;;;4884762;29;20197;-87
2021/04/22 18:37:46;;;;;;;5.73;2.47;;;;;;;;;;4885915;29;20220;-87
2021/04/22 18:40:50;;;;;;;6.03;2.57;;;;;;;;;;4903733;29;20212;-87
2021/04/22 18:43:54;;;;;;;7.50;2.47;;;;;;;;;;4902056;29;20209;-87
2021/04/22 18:47:01;;;;;;;5.90;2.57;;;;;;;;;;4875690;29;20194;-87
2021/04/22 18:50:08;;;;;;;6.10;2.60;;;;;;;;;;4896679;29;20541;-86
2021/04/22 18:53:13;;;;;;;6.77;2.70;;;;;;;;;;4915219;29;20560;-87
2021/04/22 18:56:17;;;;;;;7.30;2.50;;;;;;;;;;4875115;29;20209;-86
2021/04/22 18:59:22;;;;;;;6.90;2.73;;;;;;;;;;4884815;29;20771;-86
2021/04/22 19:02:26;;;;;;;3.80;2.27;;;;;;;;;;4897533;29;20213;-86
2021/04/22 19:05:48;;;;;;;7.90;2.20;;;;;;;;;;4865974;29;20875;-86
2021/04/22 19:08:53;;;;;;;9.77;2.77;;;;;;;;;;4902675;29;20216;-87
2021/04/22 19:11:58;;;;;;;6.17;2.63;;;;;;;;;;4894118;29;20197;-87
2021/04/22 19:15:03;;;;;;;7.00;2.30;;;;;;;;;;4917158;29;20204;-86
2021/04/22 19:18:08;;;;;;;3.80;1.67;;;;;;;;;;4917944;29;20220;-85
2021/04/22 19:21:12;;;;;;;7.53;2.17;;;;;;;;;;4889480;29;20225;-85
2021/04/22 19:24:16;;;;;;;5.90;2.40;;;;;;;;;;4883811;29;20209;-85
2021/04/22 19:27:21;;;;;;;4.73;2.20;;;;;;;;;;4873591;29;20550;-87
2021/04/22 19:30:28;;;;;;;8.73;2.53;;;;;;;;;;4907788;29;20571;-85
2021/04/22 19:33:34;;;;;;;6.47;2.67;;;;;;;;;;4913210;29;20189;-85
2021/04/22 19:36:38;;;;;;;7.30;2.40;;;;;;;;;;4873643;29;20652;-87
2021/04/22 19:39:45;;;;;;;6.20;2.10;;;;;;;;;;4874563;29;20193;-85
2021/04/22 19:42:49;;;;;;;3.50;2.30;;;;;;;;;;4884609;29;20182;-85
2021/04/22 19:45:57;;;;;;;6.43;2.10;;;;;;;;;;4884531;29;20189;-84
2021/04/22 19:49:17;;;;;;;7.10;2.50;;;;;;;;;;4897502;29;20596;-85
2021/04/22 19:52:22;;;;;;;4.80;2.33;;;;;;;;;;4886583;29;20177;-83
2021/04/22 19:55:27;;;;;;;9.70;2.53;;;;;;;;;;4886494;29;20185;-84
2021/04/22 19:58:31;;;;;;;10.67;2.80;;;;;;;;;;4908524;29;20225;-84
2021/04/22 20:01:35;;;;;;;6.23;2.17;;;;;;;;;;4888787;29;20324;-84
2021/04/22 20:04:40;;;;;;;4.50;2.33;;;;;;;;;;4882095;29;20197;-84
2021/04/22 20:07:45;;;;;;;8.30;2.20;;;;;;;;;;4900117;29;20216;-84
2021/04/22 20:10:49;;;;;;;6.83;2.37;;;;;;;;;;4894800;29;20580;-84
2021/04/22 20:13:54;;;;;;;4.03;2.20;;;;;;;;;;4913198;29;20549;-84
2021/04/22 20:17:13;;;;;;;9.53;2.80;;;;;;;;;;4891740;29;20653;-83
2021/04/22 20:20:20;;;;;;;5.07;2.40;;;;;;;;;;4906865;29;20194;-85
2021/04/22 20:23:24;;;;;;;6.97;2.67;;;;;;;;;;4905635;29;20640;-84
2021/04/22 20:26:29;;;;;;;3.97;2.17;;;;;;;;;;4908342;29;20181;-83
2021/04/22 20:29:34;;;;;;;5.53;2.33;;;;;;;;;;4906429;29;20220;-85
2021/04/22 20:32:40;;;;;;;7.50;2.20;;;;;;;;;;4896744;29;20657;-85
2021/04/22 20:35:44;;;;;;;7.13;2.57;;;;;;;;;;4888520;29;20196;-84
2021/04/22 20:38:49;;;;;;;6.83;2.50;;;;;;;;;;4904671;29;20708;-84
2021/04/22 20:41:53;;;;;;;7.10;2.30;;;;;;;;;;4888476;29;20217;-85
2021/04/22 20:44:58;;;;;;;7.30;2.57;;;;;;;;;;4886164;29;20182;-85
2021/04/22 20:48:02;;;;;;;5.87;2.97;;;;;;;;;;4888890;29;20224;-84
2021/04/22 20:51:08;;;;;;;8.23;2.50;;;;;;;;;;4904514;29;20189;-84
2021/04/22 20:54:16;;;;;;;7.80;2.70;;;;;;;;;;4867515;29;20178;-85
2021/04/22 20:57:20;;;;;;;6.13;2.50;;;;;;;;;;4895875;29;20570;-85
2021/04/22 21:00:27;;;;;;;5.93;2.60;;;;;;;;;;4906711;23;20229;-87
2021/04/22 21:03:31;;;;;;;8.17;3.10;;;;;;;;;;4850733;29;20187;-85
2021/04/22 21:06:36;;;;;;;7.23;3.00;;;;;;;;;;4850573;29;20191;-86
2021/04/22 21:09:40;;;;;;;8.23;2.87;;;;;;;;;;4864202;29;20226;-86
2021/04/22 21:12:44;;;;;;;10.07;2.93;;;;;;;;;;4850797;29;20183;-86
2021/04/22 21:15:48;;;;;;;9.10;3.27;;;;;;;;;;4851363;29;20183;-86
2021/04/22 21:18:53;;;;;;;6.47;2.87;;;;;;;;;;4868467;29;20713;-86
2021/04/22 21:21:58;;;;;;;9.00;3.20;;;;;;;;;;4842021;29;20223;-86
2021/04/22 21:25:05;;;;;;;5.50;3.03;;;;;;;;;;4852062;29;20216;-86
2021/04/22 21:28:09;;;;;;;7.70;3.10;;;;;;;;;;4858167;29;20606;-86
2021/04/22 21:31:14;;;;;;;7.73;3.00;;;;;;;;;;4840161;29;20552;-86
2021/04/22 21:34:18;;;;;;;7.73;2.90;;;;;;;;;;4842679;29;20560;-86
2021/04/22 21:37:23;;;;;;;6.17;2.60;;;;;;;;;;4870402;29;20203;-86
2021/04/22 21:40:29;;;;;;;7.30;2.80;;;;;;;;;;4825173;29;20628;-86
2021/04/22 21:43:33;;;;;;;8.20;2.83;;;;;;;;;;4845811;29;20549;-86
2021/04/22 21:46:38;;;;;;;4.47;2.60;;;;;;;;;;4845794;29;20568;-86
2021/04/22 21:49:44;;;;;;;6.77;3.07;;;;;;;;;;4845632;29;20636;-86
2021/04/22 21:52:48;;;;;;;9.33;3.57;;;;;;;;;;4865789;29;20610;-85
2021/04/22 21:55:53;;;;;;;8.53;3.83;;;;;;;;;;4853499;29;20556;-86
2021/04/22 21:58:57;;;;;;;9.77;3.60;;;;;;;;;;4842318;29;20648;-86
2021/04/22 22:02:03;;;;;;;8.50;4.27;;;;;;;;;;4853252;29;21189;-86